sensor_id;sensor_type;location;lat;lon;timestamp;temperature;humidity
5278;DHT22;2662;51.194;6.614;2023-04-25T00:01:20;7.80;99.90
5278;DHT22;2662;51.194;6.614;2023-04-25T00:03:47;7.80;99.90
5278;DHT22;2662;51.194;6.614;2023-04-25T00:06:14;7.80;99.90
5278;DHT22;2662;51.194;6.614;2023-04-25T00:08:43;7.80;99.90
5278;DHT22;2662;51.194;6.614;2023-04-25T00:11:11;7.90;99.90
5278;DHT22;2662;51.194;6.614;2023-04-25T00:13:38;8.00;99.90
5278;DHT22;2662;51.194;6.614;2023-04-25T00:16:07;8.20;99.90
5278;DHT22;2662;51.194;6.614;2023-04-25T00:18:33;8.30;99.90
5278;DHT22;2662;51.194;6.614;2023-04-25T00:21:00;8.40;99.90
5278;DHT22;2662;51.194;6.614;2023-04-25T00:23:28;8.50;99.90
5278;DHT22;2662;51.194;6.614;2023-04-25T00:25:54;8.60;99.90
5278;DHT22;2662;51.194;6.614;2023-04-25T00:28:22;8.60;99.90
5278;DHT22;2662;51.194;6.614;2023-04-25T00:30:49;8.70;99.90
5278;DHT22;2662;51.194;6.614;2023-04-25T00:33:16;8.70;99.90
5278;DHT22;2662;51.194;6.614;2023-04-25T00:35:42;8.70;99.90
5278;DHT22;2662;51.194;6.614;2023-04-25T00:38:09;8.70;99.90
5278;DHT22;2662;51.194;6.614;2023-04-25T00:40:36;8.70;99.90
5278;DHT22;2662;51.194;6.614;2023-04-25T00:43:02;8.80;99.90
5278;DHT22;2662;51.194;6.614;2023-04-25T00:45:31;8.80;99.90
5278;DHT22;2662;51.194;6.614;2023-04-25T00:47:58;8.70;99.90
5278;DHT22;2662;51.194;6.614;2023-04-25T00:50:24;8.70;99.90
5278;DHT22;2662;51.194;6.614;2023-04-25T00:52:51;8.80;99.90
5278;DHT22;2662;51.194;6.614;2023-04-25T00:55:19;8.80;99.90
5278;DHT22;2662;51.194;6.614;2023-04-25T00:57:46;8.80;99.90
5278;DHT22;2662;51.194;6.614;2023-04-25T01:00:14;8.80;99.90
5278;DHT22;2662;51.194;6.614;2023-04-25T01:02:43;8.70;99.90
5278;DHT22;2662;51.194;6.614;2023-04-25T01:05:11;8.70;99.90
5278;DHT22;2662;51.194;6.614;2023-04-25T01:07:39;8.70;99.90
5278;DHT22;2662;51.194;6.614;2023-04-25T01:10:07;8.70;99.90
5278;DHT22;2662;51.194;6.614;2023-04-25T01:12:34;8.70;99.90
5278;DHT22;2662;51.194;6.614;2023-04-25T01:15:00;8.70;99.90
5278;DHT22;2662;51.194;6.614;2023-04-25T01:17:27;8.60;99.90
5278;DHT22;2662;51.194;6.614;2023-04-25T01:19:56;8.60;99.90
5278;DHT22;2662;51.194;6.614;2023-04-25T01:22:24;8.60;99.90
5278;DHT22;2662;51.194;6.614;2023-04-25T01:24:51;8.60;99.90
5278;DHT22;2662;51.194;6.614;2023-04-25T01:27:18;8.60;99.90
5278;DHT22;2662;51.194;6.614;2023-04-25T01:29:46;8.60;99.90
5278;DHT22;2662;51.194;6.614;2023-04-25T01:32:13;8.60;99.90
5278;DHT22;2662;51.194;6.614;2023-04-25T01:34:40;8.60;99.90
5278;DHT22;2662;51.194;6.614;2023-04-25T01:37:07;8.50;99.90
5278;DHT22;2662;51.194;6.614;2023-04-25T01:39:35;8.30;99.90
5278;DHT22;2662;51.194;6.614;2023-04-25T01:42:02;8.20;99.90
5278;DHT22;2662;51.194;6.614;2023-04-25T01:44:28;8.00;99.90
5278;DHT22;2662;51.194;6.614;2023-04-25T01:46:55;8.00;99.90
5278;DHT22;2662;51.194;6.614;2023-04-25T01:49:22;8.00;99.90
5278;DHT22;2662;51.194;6.614;2023-04-25T01:51:49;8.00;99.90
5278;DHT22;2662;51.194;6.614;2023-04-25T01:54:15;8.00;99.90
5278;DHT22;2662;51.194;6.614;2023-04-25T01:56:50;8.10;99.90
5278;DHT22;2662;51.194;6.614;2023-04-25T01:59:18;8.20;99.90
5278;DHT22;2662;51.194;6.614;2023-04-25T02:01:45;8.30;99.90
5278;DHT22;2662;51.194;6.614;2023-04-25T02:04:12;8.40;99.90
5278;DHT22;2662;51.194;6.614;2023-04-25T02:06:39;8.40;99.90
5278;DHT22;2662;51.194;6.614;2023-04-25T02:09:05;8.50;99.90
5278;DHT22;2662;51.194;6.614;2023-04-25T02:11:32;8.50;99.90
5278;DHT22;2662;51.194;6.614;2023-04-25T02:14:00;8.60;99.90
5278;DHT22;2662;51.194;6.614;2023-04-25T02:16:27;8.50;99.90
5278;DHT22;2662;51.194;6.614;2023-04-25T02:18:56;8.50;99.90
5278;DHT22;2662;51.194;6.614;2023-04-25T02:21:22;8.50;99.90
5278;DHT22;2662;51.194;6.614;2023-04-25T02:23:49;8.50;99.90
5278;DHT22;2662;51.194;6.614;2023-04-25T02:26:17;8.60;99.90
5278;DHT22;2662;51.194;6.614;2023-04-25T02:28:44;8.60;99.90
5278;DHT22;2662;51.194;6.614;2023-04-25T02:31:12;8.50;99.90
5278;DHT22;2662;51.194;6.614;2023-04-25T02:33:38;8.50;99.90
5278;DHT22;2662;51.194;6.614;2023-04-25T02:36:06;8.40;99.90
5278;DHT22;2662;51.194;6.614;2023-04-25T02:38:32;8.30;99.90
5278;DHT22;2662;51.194;6.614;2023-04-25T02:40:59;8.30;99.90
5278;DHT22;2662;51.194;6.614;2023-04-25T02:43:26;8.20;99.90
5278;DHT22;2662;51.194;6.614;2023-04-25T02:45:53;8.20;99.90
5278;DHT22;2662;51.194;6.614;2023-04-25T02:48:21;8.10;99.90
5278;DHT22;2662;51.194;6.614;2023-04-25T02:50:47;8.10;99.90
5278;DHT22;2662;51.194;6.614;2023-04-25T02:53:14;8.20;99.90
5278;DHT22;2662;51.194;6.614;2023-04-25T02:55:41;8.20;99.90
5278;DHT22;2662;51.194;6.614;2023-04-25T02:58:07;8.20;99.90
5278;DHT22;2662;51.194;6.614;2023-04-25T03:00:34;8.20;99.90
5278;DHT22;2662;51.194;6.614;2023-04-25T03:03:01;8.20;99.90
5278;DHT22;2662;51.194;6.614;2023-04-25T03:05:29;8.20;99.90
5278;DHT22;2662;51.194;6.614;2023-04-25T03:07:55;8.20;99.90
5278;DHT22;2662;51.194;6.614;2023-04-25T03:10:22;8.30;99.90
5278;DHT22;2662;51.194;6.614;2023-04-25T03:12:49;8.20;99.90
5278;DHT22;2662;51.194;6.614;2023-04-25T03:15:16;8.20;99.90
5278;DHT22;2662;51.194;6.614;2023-04-25T03:17:43;8.20;99.90
5278;DHT22;2662;51.194;6.614;2023-04-25T03:20:10;8.20;99.90
5278;DHT22;2662;51.194;6.614;2023-04-25T03:22:38;8.20;99.90
5278;DHT22;2662;51.194;6.614;2023-04-25T03:25:06;8.20;99.90
5278;DHT22;2662;51.194;6.614;2023-04-25T03:27:33;8.20;99.90
5278;DHT22;2662;51.194;6.614;2023-04-25T03:30:00;8.20;99.90
5278;DHT22;2662;51.194;6.614;2023-04-25T03:32:26;8.20;99.90
5278;DHT22;2662;51.194;6.614;2023-04-25T03:34:53;8.10;99.90
5278;DHT22;2662;51.194;6.614;2023-04-25T03:37:20;8.10;99.90
5278;DHT22;2662;51.194;6.614;2023-04-25T03:39:48;8.00;99.90
5278;DHT22;2662;51.194;6.614;2023-04-25T03:42:15;8.10;99.90
5278;DHT22;2662;51.194;6.614;2023-04-25T03:44:41;8.00;99.90
5278;DHT22;2662;51.194;6.614;2023-04-25T03:47:08;8.10;99.90
5278;DHT22;2662;51.194;6.614;2023-04-25T03:49:35;8.10;99.90
5278;DHT22;2662;51.194;6.614;2023-04-25T03:52:02;8.00;99.90
5278;DHT22;2662;51.194;6.614;2023-04-25T03:54:29;8.00;99.90
5278;DHT22;2662;51.194;6.614;2023-04-25T03:56:57;7.90;99.90
5278;DHT22;2662;51.194;6.614;2023-04-25T03:59:24;7.80;99.90
5278;DHT22;2662;51.194;6.614;2023-04-25T04:01:51;7.80;99.90
5278;DHT22;2662;51.194;6.614;2023-04-25T04:04:18;7.70;99.90
5278;DHT22;2662;51.194;6.614;2023-04-25T04:06:45;7.60;99.90
5278;DHT22;2662;51.194;6.614;2023-04-25T04:09:12;7.60;99.90
5278;DHT22;2662;51.194;6.614;2023-04-25T04:11:38;7.50;99.90
5278;DHT22;2662;51.194;6.614;2023-04-25T04:14:07;7.50;99.90
5278;DHT22;2662;51.194;6.614;2023-04-25T04:16:35;7.50;99.90
5278;DHT22;2662;51.194;6.614;2023-04-25T04:19:02;7.50;99.90
5278;DHT22;2662;51.194;6.614;2023-04-25T04:21:29;7.40;99.90
5278;DHT22;2662;51.194;6.614;2023-04-25T04:23:55;7.40;99.90
5278;DHT22;2662;51.194;6.614;2023-04-25T04:26:23;7.30;99.90
5278;DHT22;2662;51.194;6.614;2023-04-25T04:28:51;7.30;99.90
5278;DHT22;2662;51.194;6.614;2023-04-25T04:31:21;7.20;99.90
5278;DHT22;2662;51.194;6.614;2023-04-25T04:33:47;7.20;99.90
5278;DHT22;2662;51.194;6.614;2023-04-25T04:36:15;7.30;99.90
5278;DHT22;2662;51.194;6.614;2023-04-25T04:38:45;7.30;99.90
5278;DHT22;2662;51.194;6.614;2023-04-25T04:41:12;7.30;99.90
5278;DHT22;2662;51.194;6.614;2023-04-25T04:43:38;7.30;99.90
5278;DHT22;2662;51.194;6.614;2023-04-25T04:46:05;7.40;99.90
5278;DHT22;2662;51.194;6.614;2023-04-25T04:48:34;7.50;99.90
5278;DHT22;2662;51.194;6.614;2023-04-25T04:51:00;7.60;99.90
5278;DHT22;2662;51.194;6.614;2023-04-25T04:53:27;7.60;99.90
5278;DHT22;2662;51.194;6.614;2023-04-25T04:55:54;7.70;99.90
5278;DHT22;2662;51.194;6.614;2023-04-25T04:58:21;7.70;99.90
5278;DHT22;2662;51.194;6.614;2023-04-25T05:00:48;7.80;99.90
5278;DHT22;2662;51.194;6.614;2023-04-25T05:03:15;7.70;99.90
5278;DHT22;2662;51.194;6.614;2023-04-25T05:05:43;7.90;99.90
5278;DHT22;2662;51.194;6.614;2023-04-25T05:08:11;7.90;99.90
5278;DHT22;2662;51.194;6.614;2023-04-25T05:10:38;8.10;99.90
5278;DHT22;2662;51.194;6.614;2023-04-25T05:13:04;8.20;99.90
5278;DHT22;2662;51.194;6.614;2023-04-25T05:15:31;8.40;99.90
5278;DHT22;2662;51.194;6.614;2023-04-25T05:17:58;8.50;99.90
5278;DHT22;2662;51.194;6.614;2023-04-25T05:20:24;8.50;99.90
5278;DHT22;2662;51.194;6.614;2023-04-25T05:22:53;8.50;99.90
5278;DHT22;2662;51.194;6.614;2023-04-25T05:25:19;8.50;99.90
5278;DHT22;2662;51.194;6.614;2023-04-25T05:27:46;8.50;99.90
5278;DHT22;2662;51.194;6.614;2023-04-25T05:30:13;8.60;99.90
5278;DHT22;2662;51.194;6.614;2023-04-25T05:32:39;8.60;99.90
5278;DHT22;2662;51.194;6.614;2023-04-25T05:35:07;8.60;99.90
5278;DHT22;2662;51.194;6.614;2023-04-25T05:37:34;8.80;99.90
5278;DHT22;2662;51.194;6.614;2023-04-25T05:40:02;9.00;99.90
5278;DHT22;2662;51.194;6.614;2023-04-25T05:42:32;9.20;99.90
5278;DHT22;2662;51.194;6.614;2023-04-25T05:44:58;9.40;99.90
5278;DHT22;2662;51.194;6.614;2023-04-25T05:47:26;9.60;99.90
5278;DHT22;2662;51.194;6.614;2023-04-25T05:49:52;9.60;99.90
5278;DHT22;2662;51.194;6.614;2023-04-25T05:52:19;9.70;99.90
5278;DHT22;2662;51.194;6.614;2023-04-25T05:54:46;9.90;99.90
5278;DHT22;2662;51.194;6.614;2023-04-25T05:57:20;9.80;99.90
5278;DHT22;2662;51.194;6.614;2023-04-25T05:59:47;9.80;99.90
5278;DHT22;2662;51.194;6.614;2023-04-25T06:02:14;10.00;99.90
5278;DHT22;2662;51.194;6.614;2023-04-25T06:04:40;10.20;99.90
5278;DHT22;2662;51.194;6.614;2023-04-25T06:07:07;10.40;99.90
5278;DHT22;2662;51.194;6.614;2023-04-25T06:09:34;11.10;99.90
5278;DHT22;2662;51.194;6.614;2023-04-25T06:12:01;11.50;99.90
5278;DHT22;2662;51.194;6.614;2023-04-25T06:14:30;11.50;99.90
5278;DHT22;2662;51.194;6.614;2023-04-25T06:16:56;11.60;99.90
5278;DHT22;2662;51.194;6.614;2023-04-25T06:19:23;11.60;99.90
5278;DHT22;2662;51.194;6.614;2023-04-25T06:21:50;11.90;99.90
5278;DHT22;2662;51.194;6.614;2023-04-25T06:24:16;11.80;99.90
5278;DHT22;2662;51.194;6.614;2023-04-25T06:26:43;11.80;99.90
5278;DHT22;2662;51.194;6.614;2023-04-25T06:29:10;11.70;99.90
5278;DHT22;2662;51.194;6.614;2023-04-25T06:31:38;11.50;99.90
5278;DHT22;2662;51.194;6.614;2023-04-25T06:34:05;11.40;99.90
5278;DHT22;2662;51.194;6.614;2023-04-25T06:36:31;11.40;99.90
5278;DHT22;2662;51.194;6.614;2023-04-25T06:38:58;11.40;99.90
5278;DHT22;2662;51.194;6.614;2023-04-25T06:41:25;11.20;99.90
5278;DHT22;2662;51.194;6.614;2023-04-25T06:43:51;11.20;99.90
5278;DHT22;2662;51.194;6.614;2023-04-25T06:46:18;11.50;99.90
5278;DHT22;2662;51.194;6.614;2023-04-25T06:48:46;11.60;99.90
5278;DHT22;2662;51.194;6.614;2023-04-25T06:51:13;11.50;99.90
5278;DHT22;2662;51.194;6.614;2023-04-25T06:53:40;11.40;99.90
5278;DHT22;2662;51.194;6.614;2023-04-25T06:56:07;11.60;99.90
5278;DHT22;2662;51.194;6.614;2023-04-25T06:58:33;11.90;99.90
5278;DHT22;2662;51.194;6.614;2023-04-25T07:01:00;12.20;99.90
5278;DHT22;2662;51.194;6.614;2023-04-25T07:03:27;12.40;99.90
5278;DHT22;2662;51.194;6.614;2023-04-25T07:05:55;13.40;99.90
5278;DHT22;2662;51.194;6.614;2023-04-25T07:08:21;13.90;99.90
5278;DHT22;2662;51.194;6.614;2023-04-25T07:10:48;13.90;99.90
5278;DHT22;2662;51.194;6.614;2023-04-25T07:13:15;13.60;99.90
5278;DHT22;2662;51.194;6.614;2023-04-25T07:15:42;13.90;99.90
5278;DHT22;2662;51.194;6.614;2023-04-25T07:18:10;15.30;99.90
5278;DHT22;2662;51.194;6.614;2023-04-25T07:20:37;17.20;99.90
5278;DHT22;2662;51.194;6.614;2023-04-25T07:23:05;18.40;99.90
5278;DHT22;2662;51.194;6.614;2023-04-25T07:25:31;19.20;99.40
5278;DHT22;2662;51.194;6.614;2023-04-25T07:27:58;19.90;97.60
5278;DHT22;2662;51.194;6.614;2023-04-25T07:30:25;19.30;95.90
5278;DHT22;2662;51.194;6.614;2023-04-25T07:32:51;18.80;95.60
5278;DHT22;2662;51.194;6.614;2023-04-25T07:35:18;19.70;95.60
5278;DHT22;2662;51.194;6.614;2023-04-25T07:37:45;20.20;95.20
5278;DHT22;2662;51.194;6.614;2023-04-25T07:40:13;20.80;91.90
5278;DHT22;2662;51.194;6.614;2023-04-25T07:42:41;19.60;91.50
5278;DHT22;2662;51.194;6.614;2023-04-25T07:45:08;18.10;93.10
5278;DHT22;2662;51.194;6.614;2023-04-25T07:47:35;16.60;95.10
5278;DHT22;2662;51.194;6.614;2023-04-25T07:50:02;15.60;97.10
5278;DHT22;2662;51.194;6.614;2023-04-25T07:52:29;14.60;99.50
5278;DHT22;2662;51.194;6.614;2023-04-25T07:54:56;14.30;99.90
5278;DHT22;2662;51.194;6.614;2023-04-25T07:57:25;13.90;99.90
5278;DHT22;2662;51.194;6.614;2023-04-25T07:59:52;13.10;99.90
5278;DHT22;2662;51.194;6.614;2023-04-25T08:02:18;13.80;99.90
5278;DHT22;2662;51.194;6.614;2023-04-25T08:04:45;15.50;99.90
5278;DHT22;2662;51.194;6.614;2023-04-25T08:07:12;17.40;99.90
5278;DHT22;2662;51.194;6.614;2023-04-25T08:09:38;18.40;99.70
5278;DHT22;2662;51.194;6.614;2023-04-25T08:12:05;19.80;96.80
5278;DHT22;2662;51.194;6.614;2023-04-25T08:14:33;20.10;94.40
5278;DHT22;2662;51.194;6.614;2023-04-25T08:17:02;20.50;93.30
5278;DHT22;2662;51.194;6.614;2023-04-25T08:19:30;21.40;90.70
5278;DHT22;2662;51.194;6.614;2023-04-25T08:21:56;22.40;83.80
5278;DHT22;2662;51.194;6.614;2023-04-25T08:24:23;21.90;80.40
5278;DHT22;2662;51.194;6.614;2023-04-25T08:26:51;20.10;78.00
5278;DHT22;2662;51.194;6.614;2023-04-25T08:29:17;20.10;79.50
5278;DHT22;2662;51.194;6.614;2023-04-25T08:31:46;19.00;81.00
5278;DHT22;2662;51.194;6.614;2023-04-25T08:34:13;18.50;83.10
5278;DHT22;2662;51.194;6.614;2023-04-25T08:36:40;17.40;87.20
5278;DHT22;2662;51.194;6.614;2023-04-25T08:39:07;16.40;89.40
5278;DHT22;2662;51.194;6.614;2023-04-25T08:41:35;15.80;91.10
5278;DHT22;2662;51.194;6.614;2023-04-25T08:44:03;15.50;92.40
5278;DHT22;2662;51.194;6.614;2023-04-25T08:46:30;16.60;93.20
5278;DHT22;2662;51.194;6.614;2023-04-25T08:49:01;16.90;93.00
5278;DHT22;2662;51.194;6.614;2023-04-25T08:51:31;17.60;91.60
5278;DHT22;2662;51.194;6.614;2023-04-25T08:54:06;17.20;90.40
5278;DHT22;2662;51.194;6.614;2023-04-25T08:56:34;16.40;90.30
5278;DHT22;2662;51.194;6.614;2023-04-25T08:59:01;15.40;91.30
5278;DHT22;2662;51.194;6.614;2023-04-25T09:01:28;14.30;92.00
5278;DHT22;2662;51.194;6.614;2023-04-25T09:03:55;13.40;94.60
5278;DHT22;2662;51.194;6.614;2023-04-25T09:06:24;12.70;97.80
5278;DHT22;2662;51.194;6.614;2023-04-25T09:08:51;12.30;99.90
5278;DHT22;2662;51.194;6.614;2023-04-25T09:11:18;12.20;99.90
5278;DHT22;2662;51.194;6.614;2023-04-25T09:13:45;12.10;99.90
5278;DHT22;2662;51.194;6.614;2023-04-25T09:16:12;12.10;99.90
5278;DHT22;2662;51.194;6.614;2023-04-25T09:18:42;12.10;99.90
5278;DHT22;2662;51.194;6.614;2023-04-25T09:21:10;12.90;99.90
5278;DHT22;2662;51.194;6.614;2023-04-25T09:23:44;14.80;99.90
5278;DHT22;2662;51.194;6.614;2023-04-25T09:26:14;16.60;96.50
5278;DHT22;2662;51.194;6.614;2023-04-25T09:28:41;18.30;93.80
5278;DHT22;2662;51.194;6.614;2023-04-25T09:31:10;18.70;90.30
5278;DHT22;2662;51.194;6.614;2023-04-25T09:33:37;17.70;88.50
5278;DHT22;2662;51.194;6.614;2023-04-25T09:36:05;16.70;90.60
5278;DHT22;2662;51.194;6.614;2023-04-25T09:38:39;15.80;93.60
5278;DHT22;2662;51.194;6.614;2023-04-25T09:41:08;15.10;95.50
5278;DHT22;2662;51.194;6.614;2023-04-25T09:43:36;14.60;99.10
5278;DHT22;2662;51.194;6.614;2023-04-25T09:46:04;13.80;98.80
5278;DHT22;2662;51.194;6.614;2023-04-25T09:48:34;13.50;99.90
5278;DHT22;2662;51.194;6.614;2023-04-25T09:51:05;13.40;99.90
5278;DHT22;2662;51.194;6.614;2023-04-25T09:53:32;13.30;99.90
5278;DHT22;2662;51.194;6.614;2023-04-25T09:56:00;13.00;99.90
5278;DHT22;2662;51.194;6.614;2023-04-25T09:58:31;12.90;99.90
5278;DHT22;2662;51.194;6.614;2023-04-25T10:01:00;13.00;99.90
5278;DHT22;2662;51.194;6.614;2023-04-25T10:03:30;13.10;98.50
5278;DHT22;2662;51.194;6.614;2023-04-25T10:05:59;14.20;98.70
5278;DHT22;2662;51.194;6.614;2023-04-25T10:08:30;15.90;96.70
5278;DHT22;2662;51.194;6.614;2023-04-25T10:11:00;16.60;94.00
5278;DHT22;2662;51.194;6.614;2023-04-25T10:13:28;16.30;93.70
5278;DHT22;2662;51.194;6.614;2023-04-25T10:15:57;15.30;93.30
5278;DHT22;2662;51.194;6.614;2023-04-25T10:18:25;14.60;95.00
5278;DHT22;2662;51.194;6.614;2023-04-25T10:20:52;14.20;95.60
5278;DHT22;2662;51.194;6.614;2023-04-25T10:23:20;14.00;96.30
5278;DHT22;2662;51.194;6.614;2023-04-25T10:25:47;13.70;97.10
5278;DHT22;2662;51.194;6.614;2023-04-25T10:28:14;13.50;97.40
5278;DHT22;2662;51.194;6.614;2023-04-25T10:31:00;13.50;97.80
5278;DHT22;2662;51.194;6.614;2023-04-25T10:33:35;13.40;98.50
5278;DHT22;2662;51.194;6.614;2023-04-25T10:36:12;13.20;96.30
5278;DHT22;2662;51.194;6.614;2023-04-25T10:38:39;13.60;95.40
5278;DHT22;2662;51.194;6.614;2023-04-25T10:41:08;13.70;96.20
5278;DHT22;2662;51.194;6.614;2023-04-25T10:43:37;14.20;97.20
5278;DHT22;2662;51.194;6.614;2023-04-25T10:46:15;14.30;96.30
5278;DHT22;2662;51.194;6.614;2023-04-25T10:48:46;14.20;97.00
5278;DHT22;2662;51.194;6.614;2023-04-25T10:51:17;14.20;95.20
5278;DHT22;2662;51.194;6.614;2023-04-25T10:53:44;14.30;95.50
5278;DHT22;2662;51.194;6.614;2023-04-25T10:56:12;14.50;93.60
5278;DHT22;2662;51.194;6.614;2023-04-25T10:58:43;14.60;93.60
5278;DHT22;2662;51.194;6.614;2023-04-25T11:01:10;14.70;91.60
5278;DHT22;2662;51.194;6.614;2023-04-25T11:03:41;14.50;90.00
5278;DHT22;2662;51.194;6.614;2023-04-25T11:06:16;14.60;92.20
5278;DHT22;2662;51.194;6.614;2023-04-25T11:08:48;14.60;92.10
5278;DHT22;2662;51.194;6.614;2023-04-25T11:11:16;14.60;90.00
5278;DHT22;2662;51.194;6.614;2023-04-25T11:13:43;14.90;89.30
5278;DHT22;2662;51.194;6.614;2023-04-25T11:16:10;14.90;90.00
5278;DHT22;2662;51.194;6.614;2023-04-25T11:18:37;14.90;89.60
5278;DHT22;2662;51.194;6.614;2023-04-25T11:21:06;15.00;90.60
5278;DHT22;2662;51.194;6.614;2023-04-25T11:23:32;15.50;89.90
5278;DHT22;2662;51.194;6.614;2023-04-25T11:25:59;15.70;92.50
5278;DHT22;2662;51.194;6.614;2023-04-25T11:28:27;15.90;88.80
5278;DHT22;2662;51.194;6.614;2023-04-25T11:30:53;15.80;89.60
5278;DHT22;2662;51.194;6.614;2023-04-25T11:33:23;15.50;85.80
5278;DHT22;2662;51.194;6.614;2023-04-25T11:35:51;15.20;86.30
5278;DHT22;2662;51.194;6.614;2023-04-25T11:38:20;15.20;88.80
5278;DHT22;2662;51.194;6.614;2023-04-25T11:40:49;14.90;88.70
5278;DHT22;2662;51.194;6.614;2023-04-25T11:43:17;14.50;89.30
5278;DHT22;2662;51.194;6.614;2023-04-25T11:45:46;14.30;88.30
5278;DHT22;2662;51.194;6.614;2023-04-25T11:48:13;13.90;90.20
5278;DHT22;2662;51.194;6.614;2023-04-25T11:50:40;13.50;91.70
5278;DHT22;2662;51.194;6.614;2023-04-25T11:53:06;13.40;92.60
5278;DHT22;2662;51.194;6.614;2023-04-25T11:55:35;13.00;95.40
5278;DHT22;2662;51.194;6.614;2023-04-25T11:58:04;12.70;99.90
5278;DHT22;2662;51.194;6.614;2023-04-25T12:00:31;12.60;99.90
5278;DHT22;2662;51.194;6.614;2023-04-25T12:02:58;12.50;99.90
5278;DHT22;2662;51.194;6.614;2023-04-25T12:05:27;12.60;99.90
5278;DHT22;2662;51.194;6.614;2023-04-25T12:07:55;12.60;99.90
5278;DHT22;2662;51.194;6.614;2023-04-25T12:10:21;12.60;99.90
5278;DHT22;2662;51.194;6.614;2023-04-25T12:12:52;12.50;99.90
5278;DHT22;2662;51.194;6.614;2023-04-25T12:15:24;12.60;99.90
5278;DHT22;2662;51.194;6.614;2023-04-25T12:17:53;12.80;99.90
5278;DHT22;2662;51.194;6.614;2023-04-25T12:20:21;13.00;99.90
5278;DHT22;2662;51.194;6.614;2023-04-25T12:22:49;13.30;99.90
5278;DHT22;2662;51.194;6.614;2023-04-25T12:25:34;13.50;99.90
5278;DHT22;2662;51.194;6.614;2023-04-25T12:28:11;13.70;98.90
5278;DHT22;2662;51.194;6.614;2023-04-25T12:30:55;13.90;97.10
5278;DHT22;2662;51.194;6.614;2023-04-25T12:33:23;14.10;96.90
5278;DHT22;2662;51.194;6.614;2023-04-25T12:35:50;14.10;93.90
5278;DHT22;2662;51.194;6.614;2023-04-25T12:38:24;13.90;87.70
5278;DHT22;2662;51.194;6.614;2023-04-25T12:40:51;13.90;86.80
5278;DHT22;2662;51.194;6.614;2023-04-25T12:43:19;14.10;86.10
5278;DHT22;2662;51.194;6.614;2023-04-25T12:45:48;14.10;85.70
5278;DHT22;2662;51.194;6.614;2023-04-25T12:48:15;14.20;84.20
5278;DHT22;2662;51.194;6.614;2023-04-25T12:50:42;14.00;79.30
5278;DHT22;2662;51.194;6.614;2023-04-25T12:53:09;14.10;85.80
5278;DHT22;2662;51.194;6.614;2023-04-25T12:55:37;14.20;82.10
5278;DHT22;2662;51.194;6.614;2023-04-25T12:58:03;14.30;84.30
5278;DHT22;2662;51.194;6.614;2023-04-25T13:00:31;14.50;84.70
5278;DHT22;2662;51.194;6.614;2023-04-25T13:02:58;14.60;83.50
5278;DHT22;2662;51.194;6.614;2023-04-25T13:05:25;14.90;80.90
5278;DHT22;2662;51.194;6.614;2023-04-25T13:07:52;15.20;86.50
5278;DHT22;2662;51.194;6.614;2023-04-25T13:10:19;15.40;83.20
5278;DHT22;2662;51.194;6.614;2023-04-25T13:12:45;14.90;88.40
5278;DHT22;2662;51.194;6.614;2023-04-25T13:15:12;14.50;87.90
5278;DHT22;2662;51.194;6.614;2023-04-25T13:17:42;14.10;84.60
5278;DHT22;2662;51.194;6.614;2023-04-25T13:20:09;14.10;85.00
5278;DHT22;2662;51.194;6.614;2023-04-25T13:22:37;14.00;81.10
5278;DHT22;2662;51.194;6.614;2023-04-25T13:25:06;13.70;79.70
5278;DHT22;2662;51.194;6.614;2023-04-25T13:27:34;13.60;79.60
5278;DHT22;2662;51.194;6.614;2023-04-25T13:30:02;13.80;81.10
5278;DHT22;2662;51.194;6.614;2023-04-25T13:32:32;13.70;81.50
5278;DHT22;2662;51.194;6.614;2023-04-25T13:35:00;13.40;83.50
5278;DHT22;2662;51.194;6.614;2023-04-25T13:37:27;13.30;84.90
5278;DHT22;2662;51.194;6.614;2023-04-25T13:39:55;13.40;86.40
5278;DHT22;2662;51.194;6.614;2023-04-25T13:42:23;13.20;90.50
5278;DHT22;2662;51.194;6.614;2023-04-25T13:44:50;13.00;92.10
5278;DHT22;2662;51.194;6.614;2023-04-25T13:47:16;12.90;93.80
5278;DHT22;2662;51.194;6.614;2023-04-25T13:49:43;13.10;94.50
5278;DHT22;2662;51.194;6.614;2023-04-25T13:52:11;13.10;95.40
5278;DHT22;2662;51.194;6.614;2023-04-25T13:54:38;13.10;94.80
5278;DHT22;2662;51.194;6.614;2023-04-25T13:57:05;13.30;95.10
5278;DHT22;2662;51.194;6.614;2023-04-25T13:59:32;13.40;94.00
5278;DHT22;2662;51.194;6.614;2023-04-25T14:01:59;13.40;94.90
5278;DHT22;2662;51.194;6.614;2023-04-25T14:04:25;13.30;94.40
5278;DHT22;2662;51.194;6.614;2023-04-25T14:06:53;13.10;93.30
5278;DHT22;2662;51.194;6.614;2023-04-25T14:09:22;13.10;94.50
5278;DHT22;2662;51.194;6.614;2023-04-25T14:11:51;13.10;95.40
5278;DHT22;2662;51.194;6.614;2023-04-25T14:14:17;13.20;96.30
5278;DHT22;2662;51.194;6.614;2023-04-25T14:16:44;13.30;96.60
5278;DHT22;2662;51.194;6.614;2023-04-25T14:19:13;13.40;98.10
5278;DHT22;2662;51.194;6.614;2023-04-25T14:21:40;13.60;97.50
5278;DHT22;2662;51.194;6.614;2023-04-25T14:24:08;13.80;97.40
5278;DHT22;2662;51.194;6.614;2023-04-25T14:26:37;13.80;97.40
5278;DHT22;2662;51.194;6.614;2023-04-25T14:29:05;14.00;96.20
5278;DHT22;2662;51.194;6.614;2023-04-25T14:31:32;14.10;95.80
5278;DHT22;2662;51.194;6.614;2023-04-25T14:33:59;14.30;95.90
5278;DHT22;2662;51.194;6.614;2023-04-25T14:36:26;14.40;96.10
5278;DHT22;2662;51.194;6.614;2023-04-25T14:38:54;14.20;98.70
5278;DHT22;2662;51.194;6.614;2023-04-25T14:41:21;14.40;97.20
5278;DHT22;2662;51.194;6.614;2023-04-25T14:43:49;14.40;97.20
5278;DHT22;2662;51.194;6.614;2023-04-25T14:46:16;14.00;97.40
5278;DHT22;2662;51.194;6.614;2023-04-25T14:48:43;13.80;96.90
5278;DHT22;2662;51.194;6.614;2023-04-25T14:51:10;13.70;97.80
5278;DHT22;2662;51.194;6.614;2023-04-25T14:53:36;13.50;97.90
5278;DHT22;2662;51.194;6.614;2023-04-25T14:56:04;13.60;98.00
5278;DHT22;2662;51.194;6.614;2023-04-25T14:58:31;13.50;98.40
5278;DHT22;2662;51.194;6.614;2023-04-25T15:00:59;13.40;97.80
5278;DHT22;2662;51.194;6.614;2023-04-25T15:03:26;13.40;99.00
5278;DHT22;2662;51.194;6.614;2023-04-25T15:05:53;13.30;98.20
5278;DHT22;2662;51.194;6.614;2023-04-25T15:08:21;13.30;95.90
5278;DHT22;2662;51.194;6.614;2023-04-25T15:10:47;13.30;95.30
5278;DHT22;2662;51.194;6.614;2023-04-25T15:13:14;13.30;94.20
5278;DHT22;2662;51.194;6.614;2023-04-25T15:15:41;13.40;94.20
5278;DHT22;2662;51.194;6.614;2023-04-25T15:18:09;13.50;95.30
5278;DHT22;2662;51.194;6.614;2023-04-25T15:20:36;13.70;94.00
5278;DHT22;2662;51.194;6.614;2023-04-25T15:23:03;13.90;93.30
5278;DHT22;2662;51.194;6.614;2023-04-25T15:25:30;13.80;92.30
5278;DHT22;2662;51.194;6.614;2023-04-25T15:27:57;13.40;92.50
5278;DHT22;2662;51.194;6.614;2023-04-25T15:30:23;13.30;94.60
5278;DHT22;2662;51.194;6.614;2023-04-25T15:32:50;13.40;97.00
5278;DHT22;2662;51.194;6.614;2023-04-25T15:35:18;13.40;96.90
5278;DHT22;2662;51.194;6.614;2023-04-25T15:37:45;13.30;97.80
5278;DHT22;2662;51.194;6.614;2023-04-25T15:40:15;13.30;98.60
5278;DHT22;2662;51.194;6.614;2023-04-25T15:42:43;13.00;98.70
5278;DHT22;2662;51.194;6.614;2023-04-25T15:45:13;12.90;99.10
5278;DHT22;2662;51.194;6.614;2023-04-25T15:47:42;12.90;98.90
5278;DHT22;2662;51.194;6.614;2023-04-25T15:50:09;13.00;98.50
5278;DHT22;2662;51.194;6.614;2023-04-25T15:52:38;13.00;95.90
5278;DHT22;2662;51.194;6.614;2023-04-25T15:55:06;13.00;95.30
5278;DHT22;2662;51.194;6.614;2023-04-25T15:57:34;12.90;92.90
5278;DHT22;2662;51.194;6.614;2023-04-25T16:00:01;12.60;91.70
5278;DHT22;2662;51.194;6.614;2023-04-25T16:02:36;12.50;90.90
5278;DHT22;2662;51.194;6.614;2023-04-25T16:05:03;12.50;92.50
5278;DHT22;2662;51.194;6.614;2023-04-25T16:07:30;12.60;92.10
5278;DHT22;2662;51.194;6.614;2023-04-25T16:09:58;12.50;93.50